Hadar, Nebraska
Current Conditions -  °F | °C
As of 5:35 PM on Monday 22 Dec 2014 (Local Time) from KOFK Reporting Station
Light Rain Light Rain  
Wind Chill: -2°   Ceiling: 2400
Heat Index:   Visibility: 10mi
Dew Point:   Wind: 15mph
Humidity: 89%   Direction: 310°NW
Pressure: 29.45"   Gusts: NA
Location:  42.11°N, 97.45°W
Report Text: KOFK 222335Z AUTO 31013KT 10SM -RA FEW014 BKN024 OVC035 03/02 A2945 RMK AO2 P0001 T00330017
Loading
Personal Weather Stations






























Interactive Weather Map New forecast layout! Learn more

10-Day Weather Forecast

Advertisements
Track Severe Weather on mobile